createdAt,value
2018-07-22T00:01:52.417Z,100528.94
2018-07-22T00:04:21.529Z,100528.83
2018-07-22T00:06:50.616Z,100525.33
2018-07-22T00:09:19.743Z,100520.94
2018-07-22T00:11:48.824Z,100522.23
2018-07-22T00:14:17.944Z,100520.97
2018-07-22T00:16:47.061Z,100523.58
2018-07-22T00:19:16.188Z,100518.48
2018-07-22T00:21:45.268Z,100520.48
2018-07-22T00:24:14.393Z,100522.31
2018-07-22T00:26:43.504Z,100520.52
2018-07-22T00:29:13.626Z,100520.57
2018-07-22T00:31:42.967Z,100526.01
2018-07-22T00:34:12.088Z,100521.30
2018-07-22T00:36:41.189Z,100510.39
2018-07-22T00:39:11.393Z,100516.33
2018-07-22T00:41:40.792Z,100518.23
2018-07-22T00:44:09.915Z,100521.39
2018-07-22T00:46:38.988Z,100517.23
2018-07-22T00:49:08.096Z,100523.78
2018-07-22T00:51:37.172Z,100524.50
2018-07-22T00:54:06.504Z,100523.20
2018-07-22T00:56:35.924Z,100529.11
2018-07-22T00:59:05.096Z,100528.45
2018-07-22T01:01:34.275Z,100531.30
2018-07-22T01:04:03.616Z,100528.19
2018-07-22T01:06:32.887Z,100531.16
2018-07-22T01:09:02.121Z,100527.95
2018-07-22T01:11:31.227Z,100523.20
2018-07-22T01:14:00.352Z,100519.49
2018-07-22T01:16:29.439Z,100518.75
2018-07-22T01:18:58.553Z,100524.95
2018-07-22T01:21:27.704Z,100526.00
2018-07-22T01:23:56.835Z,100519.90
2018-07-22T01:26:25.963Z,100520.38
2018-07-22T01:28:55.084Z,100527.77
2018-07-22T01:31:24.301Z,100519.74
2018-07-22T01:33:53.424Z,100529.75
2018-07-22T01:36:22.509Z,100528.90
2018-07-22T01:38:51.648Z,100526.85
2018-07-22T01:41:20.728Z,100534.54
2018-07-22T01:43:49.847Z,100532.18
2018-07-22T01:46:18.935Z,100532.80
2018-07-22T01:48:48.064Z,100527.59
2018-07-22T01:51:17.156Z,100527.49
2018-07-22T01:53:46.272Z,100529.20
2018-07-22T01:56:15.356Z,100526.53
2018-07-22T01:58:44.470Z,100528.20
2018-07-22T02:01:13.578Z,100536.20
2018-07-22T02:03:42.711Z,100524.00
2018-07-22T02:06:11.788Z,100529.13
2018-07-22T02:08:40.919Z,100527.31
2018-07-22T02:11:10.049Z,100530.62
2018-07-22T02:13:39.152Z,100532.06
2018-07-22T02:16:08.288Z,100531.39
2018-07-22T02:18:37.432Z,100536.99
2018-07-22T02:21:06.542Z,100538.36
2018-07-22T02:23:35.624Z,100538.03
2018-07-22T02:26:04.768Z,100540.77
2018-07-22T02:28:33.840Z,100541.00
2018-07-22T02:31:02.955Z,100537.41
2018-07-22T02:33:32.052Z,100545.37
2018-07-22T02:36:01.213Z,100539.29
2018-07-22T02:38:30.304Z,100542.60
2018-07-22T02:40:59.409Z,100546.02
2018-07-22T02:43:28.637Z,100545.95
2018-07-22T02:45:57.810Z,100547.09
2018-07-22T02:48:26.909Z,100537.41
2018-07-22T02:50:56.025Z,100547.94
2018-07-22T02:53:25.139Z,100546.50
2018-07-22T02:55:54.296Z,100551.26
2018-07-22T02:58:23.372Z,100545.37
2018-07-22T03:00:52.524Z,100548.39
2018-07-22T03:03:21.725Z,100549.55
2018-07-22T03:05:50.816Z,100547.42
2018-07-22T03:08:19.896Z,100547.42
2018-07-22T03:10:49.044Z,100556.45
2018-07-22T03:13:18.152Z,100555.46
2018-07-22T03:15:47.263Z,100555.87
2018-07-22T03:18:16.356Z,100557.72
2018-07-22T03:20:45.520Z,100553.44
2018-07-22T03:23:14.597Z,100563.14
2018-07-22T03:25:43.741Z,100557.91
2018-07-22T03:28:12.825Z,100565.89
2018-07-22T03:30:41.985Z,100568.20
2018-07-22T03:33:11.080Z,100572.34
2018-07-22T03:35:40.196Z,100575.32
2018-07-22T03:38:09.300Z,100568.30
2018-07-22T03:40:38.472Z,100573.53
2018-07-22T03:43:07.588Z,100569.22
2018-07-22T03:45:36.730Z,100566.63
2018-07-22T03:48:05.884Z,100568.41
2018-07-22T03:50:34.988Z,100570.59
2018-07-22T03:53:04.073Z,100571.82
2018-07-22T03:55:33.199Z,100571.34
2018-07-22T03:58:02.296Z,100567.48
2018-07-22T04:00:31.404Z,100575.34
2018-07-22T04:03:00.529Z,100570.02
2018-07-22T04:05:29.663Z,100571.15
2018-07-22T04:07:58.768Z,100572.89
2018-07-22T04:10:27.920Z,100572.83
2018-07-22T04:12:57.009Z,100570.73
2018-07-22T04:15:26.199Z,100576.19
2018-07-22T04:17:55.363Z,100582.31
2018-07-22T04:20:24.464Z,100576.70
2018-07-22T04:22:53.563Z,100581.30
2018-07-22T04:25:22.711Z,100584.43
2018-07-22T04:27:51.868Z,100589.69
2018-07-22T04:30:20.997Z,100597.45
2018-07-22T04:32:50.112Z,100592.66
2018-07-22T04:35:19.252Z,100598.48
2018-07-22T04:37:48.366Z,100595.48
2018-07-22T04:40:17.492Z,100592.95
2018-07-22T04:42:46.629Z,100597.16
2018-07-22T04:45:15.729Z,100594.59
2018-07-22T04:47:44.831Z,100595.86
2018-07-22T04:50:13.940Z,100595.89
2018-07-22T04:52:43.096Z,100597.03
2018-07-22T04:55:12.172Z,100606.16
2018-07-22T04:57:41.276Z,100602.23
2018-07-22T05:00:10.372Z,100601.19
2018-07-22T05:02:39.528Z,100605.97
2018-07-22T05:05:08.614Z,100609.98
2018-07-22T05:07:37.747Z,100616.37
2018-07-22T05:10:06.847Z,100612.59
2018-07-22T05:12:35.976Z,100613.77
2018-07-22T05:15:05.273Z,100618.07
2018-07-22T05:17:34.408Z,100615.17
2018-07-22T05:20:03.527Z,100622.01
2018-07-22T05:22:32.712Z,100623.48
2018-07-22T05:25:01.857Z,100624.43
2018-07-22T05:27:30.969Z,100624.61
2018-07-22T05:30:00.063Z,100625.91
2018-07-22T05:32:29.220Z,100627.07
2018-07-22T05:34:58.340Z,100634.39
2018-07-22T05:37:27.448Z,100625.29
2018-07-22T05:39:56.552Z,100627.20
2018-07-22T05:42:25.719Z,100627.03
2018-07-22T05:44:54.857Z,100625.02
2018-07-22T05:47:23.961Z,100637.06
2018-07-22T05:49:53.040Z,100638.59
2018-07-22T05:52:22.154Z,100637.70
2018-07-22T05:54:51.300Z,100638.16
2018-07-22T05:57:20.416Z,100640.13
2018-07-22T05:59:49.552Z,100641.03
2018-07-22T06:02:18.992Z,100634.91
2018-07-22T06:04:48.193Z,100635.66
2018-07-22T06:07:17.299Z,100640.74
2018-07-22T06:09:46.456Z,100643.67
2018-07-22T06:12:15.562Z,100645.42
2018-07-22T06:14:44.661Z,100643.83
2018-07-22T06:17:13.784Z,100648.73
2018-07-22T06:19:42.912Z,100652.12
2018-07-22T06:22:12.032Z,100650.56
2018-07-22T06:24:41.120Z,100654.23
2018-07-22T06:27:10.252Z,100652.23
2018-07-22T06:29:39.384Z,100654.75
2018-07-22T06:32:08.520Z,100650.52
2018-07-22T06:34:37.604Z,100648.44
2018-07-22T06:37:07.012Z,100650.96
2018-07-22T06:39:36.115Z,100654.09
2018-07-22T06:42:05.232Z,100660.77
2018-07-22T06:44:34.325Z,100660.83
2018-07-22T06:47:03.447Z,100653.25
2018-07-22T06:49:32.521Z,100654.50
2018-07-22T06:52:01.652Z,100660.64
2018-07-22T06:54:30.744Z,100665.13
2018-07-22T06:56:59.872Z,100663.29
2018-07-22T06:59:28.984Z,100666.30
2018-07-22T07:01:58.107Z,100662.62
2018-07-22T07:04:27.224Z,100664.94
2018-07-22T07:06:56.338Z,100667.70
2018-07-22T07:09:26.274Z,100665.62
2018-07-22T07:11:55.373Z,100664.09
2018-07-22T07:14:24.604Z,100664.93
2018-07-22T07:16:53.716Z,100669.44
2018-07-22T07:19:22.821Z,100671.36
2018-07-22T07:21:51.929Z,100676.53
2018-07-22T07:24:21.048Z,100670.84
2018-07-22T07:26:50.165Z,100676.86
2018-07-22T07:29:19.276Z,100680.70
2018-07-22T07:31:48.380Z,100682.09
2018-07-22T07:34:17.550Z,100689.45
2018-07-22T07:36:47.604Z,100686.80
2018-07-22T07:39:16.748Z,100694.27
2018-07-22T07:41:45.855Z,100698.66
2018-07-22T07:44:14.961Z,100692.56
2018-07-22T07:46:44.048Z,100693.05
2018-07-22T07:49:13.169Z,100694.92
2018-07-22T07:51:42.264Z,100693.75
2018-07-22T07:54:11.380Z,100707.32
2018-07-22T07:56:40.487Z,100703.11
2018-07-22T07:59:09.597Z,100709.64
2018-07-22T08:01:38.700Z,100710.66
2018-07-22T08:04:07.849Z,100706.95
2018-07-22T08:06:36.967Z,100708.36
2018-07-22T08:09:07.032Z,100716.55
2018-07-22T08:11:36.163Z,100711.64
2018-07-22T08:14:05.280Z,100714.58
2018-07-22T08:16:34.873Z,100714.34
2018-07-22T08:19:04.095Z,100713.78
2018-07-22T08:21:33.188Z,100719.43
2018-07-22T08:24:02.697Z,100718.35
2018-07-22T08:26:32.424Z,100721.59
2018-07-22T08:29:34.436Z,100726.00
2018-07-22T08:32:04.744Z,100724.49
2018-07-22T08:34:33.868Z,100723.19
2018-07-22T08:37:03.068Z,100720.86
2018-07-22T08:39:32.948Z,100718.91
2018-07-22T08:42:02.225Z,100730.03
2018-07-22T08:44:31.343Z,100729.28
2018-07-22T08:47:00.442Z,100730.78
2018-07-22T08:49:29.575Z,100726.34
2018-07-22T08:51:58.668Z,100722.79
2018-07-22T08:54:27.788Z,100733.59
2018-07-22T08:56:56.880Z,100739.07
2018-07-22T08:59:25.988Z,100732.98
2018-07-22T09:01:55.113Z,100738.02
2018-07-22T09:04:24.252Z,100741.83
2018-07-22T09:06:53.349Z,100746.23
2018-07-22T09:09:22.712Z,100747.61
2018-07-22T09:11:51.828Z,100744.16
2018-07-22T09:14:20.928Z,100750.12
2018-07-22T09:16:50.029Z,100749.36
2018-07-22T09:19:19.164Z,100751.49
2018-07-22T09:21:48.904Z,100754.84
2018-07-22T09:24:18.051Z,100751.06
2018-07-22T09:26:47.205Z,100750.27
2018-07-22T09:29:16.376Z,100759.73
2018-07-22T09:31:45.460Z,100759.53
2018-07-22T09:34:14.593Z,100755.87
2018-07-22T09:36:43.700Z,100754.38
2018-07-22T09:39:12.824Z,100756.49
2018-07-22T09:41:41.920Z,100754.27
2018-07-22T09:44:11.028Z,100752.93
2018-07-22T09:46:40.180Z,100755.55
2018-07-22T09:49:09.320Z,100748.48
2018-07-22T09:51:38.424Z,100754.67
2018-07-22T09:54:07.547Z,100755.79
2018-07-22T09:56:36.646Z,100754.30
2018-07-22T09:59:05.807Z,100759.00
2018-07-22T10:01:34.975Z,100759.16
2018-07-22T10:04:04.129Z,100754.84
2018-07-22T10:06:33.522Z,100754.03
2018-07-22T10:09:02.641Z,100753.30
2018-07-22T10:11:31.752Z,100747.52
2018-07-22T10:14:00.867Z,100755.95
2018-07-22T10:16:29.989Z,100754.75
2018-07-22T10:18:59.084Z,100755.73
2018-07-22T10:21:28.223Z,100759.20
2018-07-22T10:23:57.351Z,100761.27
2018-07-22T10:26:26.444Z,100757.33
2018-07-22T10:28:55.588Z,100756.02
2018-07-22T10:31:24.740Z,100757.70
2018-07-22T10:33:53.880Z,100756.55
2018-07-22T10:36:23.012Z,100752.84
2018-07-22T10:38:52.125Z,100751.23
2018-07-22T10:41:21.238Z,100750.77
2018-07-22T10:43:50.329Z,100755.59
2018-07-22T10:46:19.450Z,100753.81
2018-07-22T10:48:48.524Z,100758.55
2018-07-22T10:51:17.686Z,100755.02
2018-07-22T10:53:46.884Z,100751.70
2018-07-22T10:56:15.996Z,100752.24
2018-07-22T10:58:45.089Z,100753.98
2018-07-22T11:01:14.204Z,100753.16
2018-07-22T11:03:43.337Z,100753.58
2018-07-22T11:06:12.460Z,100750.33
2018-07-22T11:08:41.583Z,100752.28
2018-07-22T11:11:10.739Z,100744.27
2018-07-22T11:13:39.869Z,100747.62
2018-07-22T11:16:08.989Z,100738.52
2018-07-22T11:18:38.089Z,100736.96
2018-07-22T11:21:07.239Z,100738.02
2018-07-22T11:23:36.288Z,100735.89
2018-07-22T11:26:05.418Z,100734.91
2018-07-22T11:28:34.566Z,100721.63
2018-07-22T11:31:03.652Z,100727.48
2018-07-22T11:33:32.743Z,100732.63
2018-07-22T11:36:01.936Z,100727.48
2018-07-22T11:38:31.188Z,100729.13
2018-07-22T11:41:00.396Z,100733.12
2018-07-22T11:43:29.771Z,100726.99
2018-07-22T11:45:58.887Z,100730.19
2018-07-22T11:48:27.977Z,100723.31
2018-07-22T11:50:57.109Z,100722.30
2018-07-22T11:53:26.197Z,100717.80
2018-07-22T11:55:55.388Z,100722.06
2018-07-22T11:58:24.473Z,100715.59
2018-07-22T12:00:53.581Z,100713.42
2018-07-22T12:03:22.708Z,100712.05
2018-07-22T12:05:52.477Z,100702.63
2018-07-22T12:08:21.701Z,100708.66
2018-07-22T12:10:50.860Z,100715.28
2018-07-22T12:13:20.045Z,100703.44
2018-07-22T12:15:49.136Z,100697.48
2018-07-22T12:18:18.248Z,100702.09
2018-07-22T12:20:47.373Z,100700.60
2018-07-22T12:23:16.600Z,100703.52
2018-07-22T12:25:45.739Z,100697.65
2018-07-22T12:28:14.877Z,100701.52
2018-07-22T12:30:43.953Z,100702.41
2018-07-22T12:33:13.037Z,100692.94
2018-07-22T12:35:42.160Z,100699.25
2018-07-22T12:38:11.256Z,100701.56
2018-07-22T12:40:40.363Z,100698.22
2018-07-22T12:43:09.440Z,100697.92
2018-07-22T12:45:39.463Z,100700.27
2018-07-22T12:48:08.664Z,100702.91
2018-07-22T12:50:38.100Z,100693.33
2018-07-22T12:53:07.416Z,100694.07
2018-07-22T12:55:38.188Z,100696.52
2018-07-22T12:58:07.385Z,100688.44
2018-07-22T13:00:36.664Z,100690.66
2018-07-22T13:03:05.808Z,100690.52
2018-07-22T13:05:35.359Z,100688.88
2018-07-22T13:08:05.682Z,100687.30
2018-07-22T13:10:34.772Z,100689.54
2018-07-22T13:13:03.922Z,100682.83
2018-07-22T13:15:32.965Z,100681.78
2018-07-22T13:18:02.272Z,100691.27
2018-07-22T13:20:31.404Z,100690.87
2018-07-22T13:23:00.524Z,100694.41
2018-07-22T13:25:29.804Z,100694.99
2018-07-22T13:27:58.894Z,100694.94
2018-07-22T13:30:27.992Z,100693.80
2018-07-22T13:32:57.817Z,100702.67
2018-07-22T13:35:26.933Z,100696.28
2018-07-22T13:37:56.056Z,100700.77
2018-07-22T13:40:25.136Z,100698.27
2018-07-22T13:42:54.264Z,100692.21
2018-07-22T13:45:23.769Z,100704.72
2018-07-22T13:47:52.832Z,100708.87
2018-07-22T13:50:21.976Z,100703.00
2018-07-22T13:52:51.101Z,100708.31
2018-07-22T13:55:20.193Z,100705.34
2018-07-22T13:57:49.732Z,100707.80
2018-07-22T14:00:18.843Z,100715.11
2018-07-22T14:02:47.977Z,100715.28
2018-07-22T14:05:17.060Z,100723.26
2018-07-22T14:07:46.188Z,100721.44
2018-07-22T14:10:15.289Z,100721.97
2018-07-22T14:12:44.396Z,100718.56
2018-07-22T14:15:13.512Z,100727.73
2018-07-22T14:17:42.773Z,100727.91
2018-07-22T14:20:11.901Z,100730.68
2018-07-22T14:22:41.132Z,100737.66
2018-07-22T14:25:10.266Z,100736.59
2018-07-22T14:27:39.392Z,100737.09
2018-07-22T14:30:08.505Z,100737.91
2018-07-22T14:32:37.604Z,100735.50
2018-07-22T14:35:06.768Z,100742.06
2018-07-22T14:37:35.776Z,100739.73
2018-07-22T14:40:05.386Z,100746.22
2018-07-22T14:42:34.541Z,100741.09
2018-07-22T14:45:03.668Z,100740.21
2018-07-22T14:47:32.769Z,100744.80
2018-07-22T14:50:01.884Z,100747.92
2018-07-22T14:52:31.592Z,100746.43
2018-07-22T14:55:00.724Z,100744.09
2018-07-22T14:57:29.857Z,100743.84
2018-07-22T14:59:58.956Z,100742.98
2018-07-22T15:02:28.081Z,100739.55
2018-07-22T15:04:57.199Z,100742.03
2018-07-22T15:07:26.296Z,100734.30
2018-07-22T15:09:55.476Z,100737.63
2018-07-22T15:12:24.563Z,100739.12
2018-07-22T15:14:53.644Z,100739.26
2018-07-22T15:17:22.795Z,100734.52
2018-07-22T15:19:51.912Z,100744.45
2018-07-22T15:22:21.044Z,100735.43
2018-07-22T15:24:50.132Z,100738.77
2018-07-22T15:27:19.224Z,100732.87
2018-07-22T15:29:48.482Z,100728.03
2018-07-22T15:32:17.584Z,100731.95
2018-07-22T15:34:46.708Z,100736.34
2018-07-22T15:37:15.792Z,100740.37
2018-07-22T15:39:45.080Z,100738.52
2018-07-22T15:42:14.165Z,100737.83
2018-07-22T15:44:43.305Z,100744.78
2018-07-22T15:47:12.378Z,100735.47
2018-07-22T15:49:41.532Z,100729.97
2018-07-22T15:52:10.573Z,100729.38
2018-07-22T15:54:39.675Z,100731.78
2018-07-22T15:57:08.776Z,100728.55
2018-07-22T15:59:37.888Z,100737.70
2018-07-22T16:02:07.019Z,100737.84
2018-07-22T16:04:36.146Z,100726.80
2018-07-22T16:07:05.474Z,100730.74
2018-07-22T16:09:34.540Z,100727.95
2018-07-22T16:12:03.641Z,100725.04
2018-07-22T16:14:32.736Z,100726.81
2018-07-22T16:17:01.844Z,100734.74
2018-07-22T16:19:31.687Z,100732.48
2018-07-22T16:22:00.773Z,100725.78
2018-07-22T16:24:29.931Z,100731.00
2018-07-22T16:26:58.996Z,100730.39
2018-07-22T16:29:28.148Z,100739.36
2018-07-22T16:31:57.223Z,100734.58
2018-07-22T16:34:26.365Z,100730.08
2018-07-22T16:36:55.469Z,100727.91
2018-07-22T16:39:24.564Z,100725.95
2018-07-22T16:41:53.682Z,100727.36
2018-07-22T16:44:22.785Z,100729.27
2018-07-22T16:46:51.919Z,100728.86
2018-07-22T16:49:21.008Z,100719.63
2018-07-22T16:51:50.088Z,100727.33
2018-07-22T16:54:19.215Z,100733.43
2018-07-22T16:56:48.364Z,100732.89
2018-07-22T16:59:17.468Z,100727.72
2018-07-22T17:01:46.592Z,100734.03
2018-07-22T17:04:15.724Z,100736.26
2018-07-22T17:06:44.800Z,100729.23
2018-07-22T17:09:14.952Z,100735.65
2018-07-22T17:11:44.048Z,100732.78
2018-07-22T17:14:13.166Z,100742.42
2018-07-22T17:16:42.256Z,100747.67
2018-07-22T17:19:11.357Z,100737.97
2018-07-22T17:21:40.452Z,100745.44
2018-07-22T17:24:09.543Z,100741.64
2018-07-22T17:26:38.629Z,100743.97
2018-07-22T17:29:07.752Z,100749.28
2018-07-22T17:31:36.852Z,100745.05
2018-07-22T17:34:06.968Z,100744.36
2018-07-22T17:36:36.047Z,100744.59
2018-07-22T17:39:08.068Z,100745.58
2018-07-22T17:41:37.480Z,100744.10
2018-07-22T17:44:07.133Z,100739.88
2018-07-22T17:46:36.243Z,100747.34
2018-07-22T17:49:05.391Z,100751.05
2018-07-22T17:51:34.599Z,100751.73
2018-07-22T17:54:03.751Z,100750.05
2018-07-22T17:56:32.824Z,100752.67
2018-07-22T17:59:01.916Z,100757.41
2018-07-22T18:01:31.072Z,100758.41
2018-07-22T18:04:00.197Z,100757.62
2018-07-22T18:06:29.312Z,100759.26
2018-07-22T18:08:59.433Z,100757.65
2018-07-22T18:11:28.524Z,100759.08
2018-07-22T18:13:57.649Z,100758.41
2018-07-22T18:16:26.787Z,100756.22
2018-07-22T18:18:55.860Z,100759.27
2018-07-22T18:21:24.984Z,100760.66
2018-07-22T18:23:55.179Z,100762.25
2018-07-22T18:26:24.275Z,100760.48
2018-07-22T18:28:53.371Z,100766.44
2018-07-22T18:31:22.460Z,100770.37
2018-07-22T18:33:51.572Z,100773.11
2018-07-22T18:36:20.704Z,100770.25
2018-07-22T18:38:49.783Z,100771.77
2018-07-22T18:41:18.955Z,100784.52
2018-07-22T18:43:48.043Z,100783.76
2018-07-22T18:46:17.172Z,100788.59
2018-07-22T18:48:46.356Z,100786.09
2018-07-22T18:51:15.424Z,100787.36
2018-07-22T18:53:44.516Z,100792.13
2018-07-22T18:56:13.823Z,100797.69
2018-07-22T18:58:42.976Z,100795.61
2018-07-22T19:01:12.068Z,100792.20
2018-07-22T19:03:41.156Z,100801.16
2018-07-22T19:06:10.291Z,100801.16
2018-07-22T19:08:40.383Z,100809.02
2018-07-22T19:11:09.488Z,100806.76
2018-07-22T19:13:38.563Z,100812.87
2018-07-22T19:16:07.668Z,100820.94
2018-07-22T19:18:37.188Z,100822.34
2018-07-22T19:21:06.410Z,100824.96
2018-07-22T19:23:35.580Z,100835.69
2018-07-22T19:26:04.695Z,100835.95
2018-07-22T19:28:33.760Z,100824.47
2018-07-22T19:31:02.892Z,100842.79
2018-07-22T19:33:31.964Z,100852.48
2018-07-22T19:36:01.074Z,100851.70
2018-07-22T19:38:30.140Z,100856.19
2018-07-22T19:40:59.275Z,100854.94
2018-07-22T19:43:28.368Z,100860.06
2018-07-22T19:45:57.512Z,100863.52
2018-07-22T19:48:26.604Z,100868.72
2018-07-22T19:50:55.721Z,100877.81
2018-07-22T19:53:24.816Z,100878.03
2018-07-22T19:55:53.928Z,100879.20
2018-07-22T19:58:22.995Z,100882.68
2018-07-22T20:00:52.129Z,100879.38
2018-07-22T20:03:21.237Z,100881.75
2018-07-22T20:05:50.349Z,100883.95
2018-07-22T20:08:19.437Z,100887.95
2018-07-22T20:10:48.556Z,100892.64
2018-07-22T20:13:17.664Z,100890.03
2018-07-22T20:15:46.766Z,100897.33
2018-07-22T20:18:16.062Z,100899.77
2018-07-22T20:20:45.144Z,100895.37
2018-07-22T20:23:14.228Z,100903.22
2018-07-22T20:25:43.416Z,100914.06
2018-07-22T20:28:14.180Z,100915.72
2018-07-22T20:30:43.296Z,100916.84
2018-07-22T20:33:12.424Z,100919.90
2018-07-22T20:35:41.524Z,100917.16
2018-07-22T20:38:10.648Z,100925.53
2018-07-22T20:40:39.880Z,100922.26
2018-07-22T20:43:08.989Z,100925.87
2018-07-22T20:45:38.092Z,100923.96
2018-07-22T20:48:07.217Z,100930.75
2018-07-22T20:50:36.289Z,100933.39
2018-07-22T20:53:05.488Z,100928.18
2018-07-22T20:55:34.596Z,100927.91
2018-07-22T20:58:03.699Z,100933.05
2018-07-22T21:00:32.816Z,100934.69
2018-07-22T21:03:01.949Z,100936.78
2018-07-22T21:05:31.044Z,100935.72
2018-07-22T21:08:00.200Z,100936.10
2018-07-22T21:10:29.227Z,100941.62
2018-07-22T21:13:10.000Z,100938.19
2018-07-22T21:15:39.118Z,100940.01
2018-07-22T21:18:08.244Z,100944.36
2018-07-22T21:20:37.348Z,100952.20
2018-07-22T21:23:06.675Z,100944.97
2018-07-22T21:25:35.775Z,100954.95
2018-07-22T21:28:04.928Z,100952.06
2018-07-22T21:30:34.503Z,100949.13
2018-07-22T21:33:03.662Z,100953.57
2018-07-22T21:35:32.856Z,100960.64
2018-07-22T21:38:01.946Z,100958.92
2018-07-22T21:40:31.025Z,100957.24
2018-07-22T21:43:00.181Z,100959.81
2018-07-22T21:45:29.252Z,100954.48
2018-07-22T21:47:58.375Z,100956.05
2018-07-22T21:50:27.477Z,100957.34
2018-07-22T21:52:56.580Z,100954.17
2018-07-22T21:55:25.666Z,100962.05
2018-07-22T21:57:54.896Z,100959.86
2018-07-22T22:00:32.542Z,100963.44
2018-07-22T22:03:02.832Z,100964.60
2018-07-22T22:05:31.935Z,100968.30
2018-07-22T22:08:01.210Z,100966.23
2018-07-22T22:10:30.301Z,100970.48
2018-07-22T22:12:59.396Z,100963.78
2018-07-22T22:15:30.464Z,100962.09
2018-07-22T22:18:00.902Z,100959.64
2018-07-22T22:20:30.361Z,100966.66
2018-07-22T22:22:59.507Z,100967.67
2018-07-22T22:25:28.720Z,100973.81
2018-07-22T22:27:57.824Z,100979.79
2018-07-22T22:30:26.897Z,100973.59
2018-07-22T22:32:56.004Z,100970.06
2018-07-22T22:35:25.116Z,100968.40
2018-07-22T22:37:54.208Z,100969.83
2018-07-22T22:40:23.331Z,100973.18
2018-07-22T22:42:52.424Z,100979.16
2018-07-22T22:45:21.542Z,100982.31
2018-07-22T22:47:50.637Z,100977.22
2018-07-22T22:50:19.720Z,100976.22
2018-07-22T22:52:48.855Z,100978.39
2018-07-22T22:55:17.937Z,100980.53
2018-07-22T22:57:58.313Z,100977.56
2018-07-22T23:00:27.476Z,100984.49
2018-07-22T23:02:56.658Z,100981.97
2018-07-22T23:05:25.760Z,100985.11
2018-07-22T23:07:54.879Z,100982.28
2018-07-22T23:10:23.997Z,100982.41
2018-07-22T23:12:53.144Z,100980.95
2018-07-22T23:15:22.225Z,100983.00
2018-07-22T23:17:51.376Z,100984.55
2018-07-22T23:20:20.444Z,100979.97
2018-07-22T23:22:49.531Z,100983.70
2018-07-22T23:25:18.603Z,100983.95
2018-07-22T23:27:47.700Z,100985.22
2018-07-22T23:30:16.791Z,100987.84
2018-07-22T23:32:45.867Z,100978.73
2018-07-22T23:35:14.967Z,100990.33
2018-07-22T23:37:44.076Z,100986.89
2018-07-22T23:40:13.178Z,100978.77
2018-07-22T23:42:42.299Z,100984.45
2018-07-22T23:45:11.415Z,100978.96
2018-07-22T23:47:40.557Z,100977.47
2018-07-22T23:50:09.638Z,100981.45
2018-07-22T23:52:38.737Z,100979.81
2018-07-22T23:55:07.861Z,100981.21
2018-07-22T23:57:37.112Z,100972.66
